createdAt,value
2019-05-03T00:10:19.401Z,9.72
2019-05-03T00:25:26.069Z,9.67
2019-05-03T00:40:32.979Z,9.69
2019-05-03T00:55:41.882Z,9.58
2019-05-03T01:10:48.503Z,9.46
2019-05-03T01:25:56.123Z,9.53
2019-05-03T01:41:03.052Z,9.40
2019-05-03T01:56:11.722Z,9.38
2019-05-03T02:11:18.190Z,9.22
2019-05-03T02:26:25.405Z,9.28
2019-05-03T02:41:34.119Z,9.12
2019-05-03T02:56:46.023Z,9.20
2019-05-03T03:11:55.862Z,8.89
2019-05-03T03:27:05.801Z,8.62
2019-05-03T03:42:16.322Z,8.38
2019-05-03T03:57:25.662Z,8.44
2019-05-03T04:12:35.053Z,8.60
2019-05-03T04:27:41.899Z,8.71
2019-05-03T04:42:48.810Z,8.96
2019-05-03T04:57:56.238Z,9.33
2019-05-03T05:13:05.386Z,9.43
2019-05-03T05:28:30.184Z,9.72
2019-05-03T05:43:37.407Z,10.10
2019-05-03T05:58:46.002Z,10.40
2019-05-03T06:14:05.053Z,11.12
2019-05-03T06:29:15.024Z,11.94
2019-05-03T06:44:37.324Z,12.80
2019-05-03T06:59:56.508Z,14.00
2019-05-03T07:15:05.140Z,14.44
2019-05-03T07:30:12.753Z,14.52
2019-05-03T07:45:20.691Z,14.43
2019-05-03T08:00:27.588Z,14.37
2019-05-03T08:15:36.139Z,14.13
2019-05-03T08:30:50.593Z,13.98
2019-05-03T08:45:57.047Z,13.79
2019-05-03T09:01:07.409Z,13.69
2019-05-03T09:16:15.329Z,13.49
2019-05-03T09:31:21.858Z,13.57
2019-05-03T09:46:29.671Z,13.53
2019-05-03T10:01:36.486Z,13.94
2019-05-03T10:16:51.850Z,14.22
2019-05-03T10:32:00.551Z,14.31
2019-05-03T10:47:08.452Z,14.44
2019-05-03T11:02:30.929Z,14.91
2019-05-03T11:17:38.398Z,15.30
2019-05-03T11:32:48.000Z,15.96
2019-05-03T11:47:55.849Z,15.95
2019-05-03T12:03:07.395Z,16.12
2019-05-03T12:18:16.241Z,16.17
2019-05-03T12:33:26.040Z,15.69
2019-05-03T12:48:32.603Z,15.46
2019-05-03T13:03:42.105Z,15.77
2019-05-03T13:18:49.420Z,15.84
2019-05-03T13:33:56.412Z,14.95
2019-05-03T13:49:05.381Z,14.04
2019-05-03T14:04:14.810Z,12.77
2019-05-03T14:19:25.941Z,11.93
2019-05-03T14:34:32.836Z,11.10
2019-05-03T14:49:39.788Z,10.86
2019-05-03T15:04:46.768Z,10.74
2019-05-03T15:19:54.742Z,10.64
2019-05-03T15:35:01.822Z,10.74
2019-05-03T15:50:09.244Z,10.62
2019-05-03T16:05:15.629Z,10.49
2019-05-03T16:20:22.540Z,10.59
2019-05-03T16:35:30.483Z,10.57
2019-05-03T16:50:39.167Z,10.66
2019-05-03T17:05:56.478Z,10.60
2019-05-03T17:21:03.214Z,11.85
2019-05-03T17:36:10.057Z,10.93
2019-05-03T17:51:35.115Z,10.59
2019-05-03T18:06:45.261Z,10.30
2019-05-03T18:21:52.783Z,10.21
2019-05-03T18:36:59.741Z,10.06
2019-05-03T18:52:07.011Z,9.98
2019-05-03T19:07:18.358Z,9.85
2019-05-03T19:22:25.391Z,9.76
2019-05-03T19:37:32.328Z,9.53
2019-05-03T19:52:57.144Z,9.51
2019-05-03T20:08:12.907Z,9.41
2019-05-03T20:23:39.307Z,9.43
2019-05-03T20:38:48.269Z,9.32
2019-05-03T20:53:55.350Z,9.34
2019-05-03T21:09:04.623Z,9.16
2019-05-03T21:24:14.832Z,9.17
2019-05-03T21:39:21.917Z,9.02
2019-05-03T21:54:31.487Z,8.82
2019-05-03T22:09:41.307Z,8.44
2019-05-03T22:24:50.842Z,8.26
2019-05-03T22:39:58.944Z,7.82
2019-05-03T22:55:08.334Z,7.62
2019-05-03T23:10:17.494Z,7.27
2019-05-03T23:25:25.078Z,7.31
2019-05-03T23:40:32.101Z,7.11
2019-05-03T23:55:40.539Z,6.93
